createdAt,value
2018-01-11T00:02:17.362Z,99609.93
2018-01-11T00:05:18.722Z,99610.94
2018-01-11T00:08:20.024Z,99626.98
2018-01-11T00:11:21.414Z,99620.69
2018-01-11T00:14:22.777Z,99625.88
2018-01-11T00:17:24.849Z,99612.74
2018-01-11T00:20:26.906Z,99629.02
2018-01-11T00:23:28.284Z,99620.48
2018-01-11T00:26:29.657Z,99633.31
2018-01-11T00:29:31.024Z,99618.73
2018-01-11T00:32:32.405Z,99633.33
2018-01-11T00:35:33.788Z,99632.52
2018-01-11T00:38:35.127Z,99624.18
2018-01-11T00:41:37.184Z,99626.78
2018-01-11T00:44:39.288Z,99640.39
2018-01-11T00:47:40.701Z,99631.11
2018-01-11T00:50:42.856Z,99630.84
2018-01-11T00:53:51.319Z,99638.27
2018-01-11T00:56:52.681Z,99635.47
2018-01-11T00:59:54.081Z,99629.36
2018-01-11T01:02:55.420Z,99637.81
2018-01-11T01:05:56.784Z,99635.29
2018-01-11T01:08:58.917Z,99636.52
2018-01-11T01:12:00.279Z,99642.37
2018-01-11T01:15:01.654Z,99640.59
2018-01-11T01:18:03.816Z,99646.44
2018-01-11T01:21:05.228Z,99656.01
2018-01-11T01:24:06.558Z,99655.88
2018-01-11T01:27:07.943Z,99666.47
2018-01-11T01:30:09.328Z,99661.67
2018-01-11T01:33:11.447Z,99670.34
2018-01-11T01:36:12.871Z,99666.38
2018-01-11T01:39:14.205Z,99666.06
2018-01-11T01:42:16.290Z,99679.45
2018-01-11T01:45:17.632Z,99681.41
2018-01-11T01:48:38.343Z,99671.56
2018-01-11T01:51:39.738Z,99683.42
2018-01-11T01:54:41.153Z,99674.25
2018-01-11T01:57:43.243Z,99682.52
2018-01-11T02:00:44.624Z,99677.86
2018-01-11T02:03:46.028Z,99685.82
2018-01-11T02:06:47.436Z,99681.34
2018-01-11T02:09:48.769Z,99692.47
2018-01-11T02:12:50.550Z,99691.30
2018-01-11T02:15:51.898Z,99688.73
2018-01-11T02:18:53.272Z,99676.69
2018-01-11T02:21:55.374Z,99677.68
2018-01-11T02:24:56.709Z,99690.92
2018-01-11T02:27:58.062Z,99688.69
2018-01-11T02:30:59.420Z,99679.27
2018-01-11T02:34:00.825Z,99681.79
2018-01-11T02:37:02.851Z,99687.49
2018-01-11T02:40:04.239Z,99680.85
2018-01-11T02:43:06.378Z,99687.77
2018-01-11T02:46:07.735Z,99688.95
2018-01-11T02:49:09.105Z,99689.01
2018-01-11T02:52:10.421Z,99687.77
2018-01-11T02:55:12.587Z,99690.30
2018-01-11T02:58:13.954Z,99684.50
2018-01-11T03:01:15.310Z,99692.78
2018-01-11T03:04:16.667Z,99693.27
2018-01-11T03:07:18.062Z,99702.47
2018-01-11T03:10:19.444Z,99679.42
2018-01-11T03:13:20.848Z,99699.27
2018-01-11T03:16:22.949Z,99702.05
2018-01-11T03:19:24.326Z,99704.71
2018-01-11T03:22:25.710Z,99702.06
2018-01-11T03:25:27.818Z,99710.43
2018-01-11T03:28:29.205Z,99711.77
2018-01-11T03:31:30.594Z,99711.84
2018-01-11T03:34:31.979Z,99719.80
2018-01-11T03:37:33.420Z,99723.87
2018-01-11T03:40:34.765Z,99724.30
2018-01-11T03:43:36.119Z,99724.35
2018-01-11T03:46:37.514Z,99727.08
2018-01-11T03:49:39.293Z,99722.57
2018-01-11T03:52:40.704Z,99721.48
2018-01-11T03:55:42.033Z,99724.86
2018-01-11T03:58:43.436Z,99729.20
2018-01-11T04:01:44.770Z,99726.91
2018-01-11T04:04:46.125Z,99736.89
2018-01-11T04:07:47.470Z,99755.77
2018-01-11T04:10:48.809Z,99737.77
2018-01-11T04:13:50.917Z,99734.82
2018-01-11T04:16:53.037Z,99741.98
2018-01-11T04:19:54.410Z,99775.06
2018-01-11T04:22:55.763Z,99753.86
2018-01-11T04:25:57.161Z,99762.00
2018-01-11T04:28:58.531Z,99755.18
2018-01-11T04:31:59.831Z,99751.63
2018-01-11T04:35:01.201Z,99759.47
2018-01-11T04:38:02.519Z,99765.30
2018-01-11T04:41:03.900Z,99760.27
2018-01-11T04:44:05.262Z,99765.16
2018-01-11T04:47:06.665Z,99769.05
2018-01-11T04:50:08.046Z,99773.78
2018-01-11T04:53:10.197Z,99774.78
2018-01-11T04:56:11.604Z,99784.22
2018-01-11T04:59:12.960Z,99788.28
2018-01-11T05:02:14.360Z,99788.04
2018-01-11T05:05:16.467Z,99796.83
2018-01-11T05:08:17.843Z,99803.04
2018-01-11T05:11:19.195Z,99794.67
2018-01-11T05:14:20.543Z,99793.80
2018-01-11T05:17:22.618Z,99803.54
2018-01-11T05:20:23.972Z,99803.90
2018-01-11T05:23:25.343Z,99812.09
2018-01-11T05:26:27.447Z,99810.56
2018-01-11T05:29:28.847Z,99821.37
2018-01-11T05:32:30.159Z,99822.27
2018-01-11T05:35:32.263Z,99823.04
2018-01-11T05:38:33.602Z,99835.89
2018-01-11T05:41:34.937Z,99832.66
2018-01-11T05:44:36.244Z,99836.56
2018-01-11T05:47:38.308Z,99844.52
2018-01-11T05:50:40.548Z,99832.14
2018-01-11T05:53:41.871Z,99844.42
2018-01-11T05:56:43.268Z,99847.05
2018-01-11T05:59:45.346Z,99847.44
2018-01-11T06:02:47.534Z,99854.03
2018-01-11T06:05:48.921Z,99856.33
2018-01-11T06:08:50.273Z,99858.94
2018-01-11T06:11:51.659Z,99861.57
2018-01-11T06:14:53.755Z,99861.23
2018-01-11T06:17:55.149Z,99871.37
2018-01-11T06:20:56.534Z,99876.89
2018-01-11T06:23:58.667Z,99880.05
2018-01-11T06:27:00.000Z,99885.33
2018-01-11T06:30:01.363Z,99888.34
2018-01-11T06:33:03.442Z,99885.91
2018-01-11T06:36:04.836Z,99893.60
2018-01-11T06:39:06.238Z,99901.96
2018-01-11T06:42:07.618Z,99902.07
2018-01-11T06:45:09.772Z,99904.80
2018-01-11T06:48:11.146Z,99893.01
2018-01-11T06:51:13.330Z,99910.74
2018-01-11T06:54:14.762Z,99910.41
2018-01-11T06:57:16.878Z,99915.80
2018-01-11T07:00:18.252Z,99924.49
2018-01-11T07:03:19.581Z,99932.78
2018-01-11T07:06:20.935Z,99927.51
2018-01-11T07:09:22.287Z,99930.11
2018-01-11T07:12:23.661Z,99933.63
2018-01-11T07:15:25.014Z,99938.39
2018-01-11T07:18:26.390Z,99938.45
2018-01-11T07:21:27.771Z,99939.70
2018-01-11T07:24:29.245Z,99941.45
2018-01-11T07:27:30.636Z,99951.46
2018-01-11T07:30:32.748Z,99952.24
2018-01-11T07:33:34.119Z,99961.03
2018-01-11T07:36:35.521Z,99963.03
2018-01-11T07:39:36.892Z,99970.84
2018-01-11T07:42:38.360Z,99970.72
2018-01-11T07:45:40.531Z,99959.38
2018-01-11T07:48:41.922Z,99973.80
2018-01-11T07:51:43.337Z,99971.63
2018-01-11T07:54:45.447Z,99973.83
2018-01-11T07:57:47.574Z,99978.20
2018-01-11T08:00:49.677Z,99975.69
2018-01-11T08:03:51.012Z,99981.38
2018-01-11T08:06:52.369Z,99987.33
2018-01-11T08:09:53.750Z,99992.55
2018-01-11T08:12:55.035Z,99990.39
2018-01-11T08:15:56.407Z,99990.33
2018-01-11T08:18:57.671Z,99994.62
2018-01-11T08:21:59.055Z,99998.13
2018-01-11T08:25:00.363Z,100010.36
2018-01-11T08:28:01.709Z,100018.58
2018-01-11T08:31:03.015Z,100026.02
2018-01-11T08:34:04.418Z,100015.88
2018-01-11T08:37:05.698Z,100024.13
2018-01-11T08:40:07.006Z,100026.86
2018-01-11T08:46:24.619Z,100036.91
2018-01-11T08:49:26.022Z,100029.16
2018-01-11T08:52:28.094Z,100038.62
2018-01-11T08:55:29.430Z,100036.82
2018-01-11T08:58:30.763Z,100040.20
2018-01-11T09:01:32.088Z,100046.59
2018-01-11T09:04:33.395Z,100042.98
2018-01-11T09:07:35.466Z,100045.96
2018-01-11T09:10:37.565Z,100037.89
2018-01-11T09:13:38.873Z,100051.29
2018-01-11T09:16:40.191Z,100053.03
2018-01-11T09:19:41.574Z,100065.89
2018-01-11T09:22:42.869Z,100067.00
2018-01-11T09:25:44.241Z,100068.66
2018-01-11T09:28:45.543Z,100082.30
2018-01-11T09:31:47.730Z,100082.39
2018-01-11T09:34:49.106Z,100091.74
2018-01-11T09:37:50.449Z,100113.73
2018-01-11T09:40:51.800Z,100105.41
2018-01-11T09:43:53.116Z,100111.79
2018-01-11T09:46:54.452Z,100115.14
2018-01-11T09:49:56.559Z,100120.41
2018-01-11T09:52:57.926Z,100118.22
2018-01-11T09:55:59.267Z,100119.95
2018-01-11T09:59:00.634Z,100128.48
2018-01-11T10:02:01.968Z,100131.63
2018-01-11T10:05:03.290Z,100126.34
2018-01-11T10:08:04.642Z,100139.90
2018-01-11T10:11:05.959Z,100137.39
2018-01-11T10:14:07.299Z,100133.43
2018-01-11T10:17:08.623Z,100137.47
2018-01-11T10:20:09.976Z,100138.30
2018-01-11T10:23:11.273Z,100147.89
2018-01-11T10:26:13.348Z,100138.28
2018-01-11T10:29:15.408Z,100140.03
2018-01-11T10:32:17.490Z,100155.36
2018-01-11T10:35:18.824Z,100152.70
2018-01-11T10:38:20.878Z,100155.25
2018-01-11T10:41:22.979Z,100163.63
2018-01-11T10:44:25.066Z,100157.87
2018-01-11T10:47:26.422Z,100154.34
2018-01-11T10:50:27.739Z,100157.41
2018-01-11T10:53:29.090Z,100168.77
2018-01-11T10:56:30.405Z,100168.77
2018-01-11T10:59:32.474Z,100162.53
2018-01-11T11:06:09.892Z,100163.03
2018-01-11T11:09:11.221Z,100170.52
2018-01-11T11:12:12.534Z,100161.88
2018-01-11T11:15:13.877Z,100157.36
2018-01-11T11:18:15.239Z,100162.05
2018-01-11T11:21:16.545Z,100153.69
2018-01-11T11:24:17.862Z,100161.52
2018-01-11T11:27:19.184Z,100153.86
2018-01-11T11:30:20.519Z,100151.48
2018-01-11T11:33:21.847Z,100156.33
2018-01-11T11:36:23.921Z,100161.83
2018-01-11T11:39:25.996Z,100165.41
2018-01-11T11:42:28.050Z,100161.47
2018-01-11T11:45:30.133Z,100172.39
2018-01-11T11:48:31.395Z,100168.12
2018-01-11T11:51:32.740Z,100168.88
2018-01-11T11:54:34.053Z,100175.73
2018-01-11T11:57:35.404Z,100177.77
2018-01-11T12:00:36.753Z,100170.21
2018-01-11T12:03:38.035Z,100177.15
2018-01-11T12:09:48.266Z,100187.03
2018-01-11T12:12:49.670Z,100182.94
2018-01-11T12:15:52.690Z,100175.30
2018-01-11T12:18:54.013Z,100177.73
2018-01-11T12:21:55.362Z,100182.80
2018-01-11T12:24:56.698Z,100176.39
2018-01-11T12:27:58.048Z,100170.70
2018-01-11T12:30:59.434Z,100179.31
2018-01-11T12:34:00.758Z,100177.89
2018-01-11T12:37:02.103Z,100181.75
2018-01-11T12:40:03.434Z,100176.99
2018-01-11T12:43:05.499Z,100172.59
2018-01-11T12:49:36.806Z,100188.50
2018-01-11T12:52:38.150Z,100186.09
2018-01-11T12:55:39.435Z,100191.34
2018-01-11T12:58:40.786Z,100190.31
2018-01-11T13:01:42.808Z,100199.46
2018-01-11T13:04:44.149Z,100201.72
2018-01-11T13:07:45.496Z,100199.58
2018-01-11T13:10:46.990Z,100210.52
2018-01-11T13:13:48.283Z,100203.13
2018-01-11T13:16:50.374Z,100217.74
2018-01-11T13:19:51.745Z,100217.38
2018-01-11T13:22:53.030Z,100226.02
2018-01-11T13:25:54.399Z,100228.32
2018-01-11T13:28:56.450Z,100208.50
2018-01-11T13:31:57.763Z,100220.25
2018-01-11T13:34:59.035Z,100230.63
2018-01-11T13:38:00.347Z,100239.98
2018-01-11T13:41:01.679Z,100241.24
2018-01-11T13:44:03.028Z,100240.37
2018-01-11T13:47:05.091Z,100252.55
2018-01-11T13:50:07.143Z,100257.00
2018-01-11T13:53:08.566Z,100259.98
2018-01-11T13:56:09.887Z,100261.44
2018-01-11T13:59:11.454Z,100263.09
2018-01-11T14:02:12.787Z,100269.44
2018-01-11T14:05:14.150Z,100270.20
2018-01-11T14:08:15.502Z,100273.34
2018-01-11T14:11:16.823Z,100274.73
2018-01-11T14:14:18.142Z,100291.40
2018-01-11T14:17:19.442Z,100288.31
2018-01-11T14:20:20.809Z,100290.96
2018-01-11T14:23:22.134Z,100289.71
2018-01-11T14:26:23.463Z,100295.27
2018-01-11T14:29:25.600Z,100301.10
2018-01-11T14:32:26.928Z,100300.00
2018-01-11T14:35:28.633Z,100302.38
2018-01-11T14:38:29.991Z,100307.30
2018-01-11T14:41:31.354Z,100294.28
2018-01-11T14:44:32.737Z,100310.91
2018-01-11T14:47:34.126Z,100316.30
2018-01-11T14:50:36.229Z,100311.41
2018-01-11T14:53:37.599Z,100326.84
2018-01-11T14:56:39.678Z,100322.92
2018-01-11T14:59:41.051Z,100326.44
2018-01-11T15:02:42.399Z,100329.19
2018-01-11T15:05:43.785Z,100328.62
2018-01-11T15:08:45.138Z,100321.66
2018-01-11T15:11:46.457Z,100338.86
2018-01-11T15:14:47.826Z,100329.71
2018-01-11T15:17:49.915Z,100343.77
2018-01-11T15:20:51.254Z,100345.67
2018-01-11T15:23:52.642Z,100349.14
2018-01-11T15:26:54.027Z,100353.99
2018-01-11T15:29:55.394Z,100357.88
2018-01-11T15:32:57.448Z,100361.47
2018-01-11T15:35:58.816Z,100363.41
2018-01-11T15:39:00.942Z,100366.50
2018-01-11T15:42:02.302Z,100362.89
2018-01-11T15:45:03.680Z,100373.92
2018-01-11T15:48:05.737Z,100381.06
2018-01-11T15:51:07.821Z,100381.96
2018-01-11T15:54:09.950Z,100390.25
2018-01-11T15:57:11.279Z,100393.39
2018-01-11T16:00:12.658Z,100400.96
2018-01-11T16:03:14.031Z,100397.91
2018-01-11T16:06:16.143Z,100400.09
2018-01-11T16:09:17.478Z,100394.03
2018-01-11T16:12:18.834Z,100398.42
2018-01-11T16:15:20.242Z,100402.42
2018-01-11T16:18:21.603Z,100410.76
2018-01-11T16:21:23.699Z,100413.86
2018-01-11T16:24:25.037Z,100420.98
2018-01-11T16:27:26.410Z,100414.44
2018-01-11T16:30:27.783Z,100417.16
2018-01-11T16:33:29.150Z,100425.45
2018-01-11T16:36:30.486Z,100436.53
2018-01-11T16:39:31.864Z,100436.09
2018-01-11T16:42:33.264Z,100428.34
2018-01-11T16:45:34.586Z,100440.53
2018-01-11T16:48:35.975Z,100439.18
2018-01-11T16:51:37.334Z,100430.45
2018-01-11T16:54:38.691Z,100423.11
2018-01-11T16:57:40.107Z,100440.67
2018-01-11T17:00:41.466Z,100448.53
2018-01-11T17:03:42.867Z,100444.22
2018-01-11T17:06:44.273Z,100459.98
2018-01-11T17:09:46.365Z,100464.45
2018-01-11T17:12:47.748Z,100457.27
2018-01-11T17:15:49.839Z,100459.48
2018-01-11T17:18:51.198Z,100457.41
2018-01-11T17:21:52.554Z,100465.72
2018-01-11T17:24:53.883Z,100464.91
2018-01-11T17:27:55.342Z,100474.17
2018-01-11T17:30:56.702Z,100479.59
2018-01-11T17:33:58.042Z,100480.98
2018-01-11T17:36:59.391Z,100487.87
2018-01-11T17:40:00.771Z,100491.92
2018-01-11T17:43:02.107Z,100480.16
2018-01-11T17:46:03.446Z,100495.06
2018-01-11T17:53:10.048Z,100502.69
2018-01-11T17:56:11.425Z,100496.91
2018-01-11T17:59:12.790Z,100505.21
2018-01-11T18:02:14.168Z,100502.20
2018-01-11T18:05:16.219Z,100500.56
2018-01-11T18:08:18.374Z,100510.11
2018-01-11T18:11:19.765Z,100510.06
2018-01-11T18:14:21.122Z,100515.27
2018-01-11T18:17:23.270Z,100515.13
2018-01-11T18:20:25.406Z,100510.05
2018-01-11T18:23:26.748Z,100502.02
2018-01-11T18:26:28.145Z,100517.41
2018-01-11T18:29:30.226Z,100520.37
2018-01-11T18:32:31.586Z,100515.47
2018-01-11T18:35:33.068Z,100526.84
2018-01-11T18:38:34.607Z,100531.69
2018-01-11T18:41:35.976Z,100540.95
2018-01-11T18:44:37.743Z,100535.23
2018-01-11T18:47:39.871Z,100532.63
2018-01-11T18:50:41.267Z,100539.69
2018-01-11T18:53:43.715Z,100528.73
2018-01-11T18:56:46.948Z,100533.58
2018-01-11T18:59:48.826Z,100536.23
2018-01-11T19:02:50.195Z,100547.93
2018-01-11T19:05:53.242Z,100559.19
2018-01-11T19:08:55.352Z,100555.91
2018-01-11T19:11:58.457Z,100574.38
2018-01-11T19:14:59.818Z,100569.63
2018-01-11T19:18:01.212Z,100571.79
2018-01-11T19:21:02.634Z,100563.87
2018-01-11T19:24:04.134Z,100574.55
2018-01-11T19:27:05.510Z,100577.62
2018-01-11T19:30:06.884Z,100579.78
2018-01-11T19:33:08.274Z,100587.20
2018-01-11T19:36:09.611Z,100580.66
2018-01-11T19:39:10.960Z,100582.30
2018-01-11T19:42:12.389Z,100577.13
2018-01-11T19:45:13.766Z,100583.73
2018-01-11T19:48:15.134Z,100588.57
2018-01-11T19:51:16.786Z,100584.66
2018-01-11T19:54:18.178Z,100589.05
2018-01-11T19:57:19.679Z,100601.03
2018-01-11T20:00:21.097Z,100592.27
2018-01-11T20:03:22.451Z,100601.47
2018-01-11T20:06:23.898Z,100607.88
2018-01-11T20:09:25.324Z,100603.77
2018-01-11T20:12:27.802Z,100606.25
2018-01-11T20:15:29.273Z,100612.37
2018-01-11T20:18:30.857Z,100616.37
2018-01-11T20:21:33.038Z,100615.11
2018-01-11T20:24:35.549Z,100616.87
2018-01-11T20:27:37.660Z,100624.30
2018-01-11T20:30:40.283Z,100631.30
2018-01-11T20:33:41.678Z,100636.20
2018-01-11T20:36:43.175Z,100627.00
2018-01-11T20:39:45.664Z,100628.36
2018-01-11T20:42:47.129Z,100626.16
2018-01-11T20:45:49.597Z,100624.41
2018-01-11T20:48:51.827Z,100631.94
2018-01-11T20:51:53.364Z,100628.86
2018-01-11T20:54:54.700Z,100637.23
2018-01-11T20:57:56.196Z,100633.40
2018-01-11T21:00:58.286Z,100642.55
2018-01-11T21:03:59.661Z,100640.79
2018-01-11T21:07:01.057Z,100645.58
2018-01-11T21:10:02.525Z,100650.48
2018-01-11T21:13:03.977Z,100640.93
2018-01-11T21:16:05.339Z,100655.38
2018-01-11T21:19:07.207Z,100652.64
2018-01-11T21:22:08.631Z,100666.33
2018-01-11T21:25:10.078Z,100661.57
2018-01-11T21:28:11.453Z,100665.45
2018-01-11T21:31:12.859Z,100667.16
2018-01-11T21:34:14.978Z,100666.33
2018-01-11T21:37:16.620Z,100664.70
2018-01-11T21:40:18.015Z,100677.81
2018-01-11T21:43:19.800Z,100682.13
2018-01-11T21:46:21.944Z,100685.61
2018-01-11T21:49:23.423Z,100681.77
2018-01-11T21:52:25.539Z,100684.45
2018-01-11T21:55:26.876Z,100680.85
2018-01-11T21:58:28.163Z,100691.86
2018-01-11T22:01:29.468Z,100699.73
2018-01-11T22:04:30.764Z,100696.22
2018-01-11T22:07:32.233Z,100691.54
2018-01-11T22:10:33.634Z,100701.63
2018-01-11T22:13:35.018Z,100696.34
2018-01-11T22:19:44.395Z,100707.02
2018-01-11T22:22:45.735Z,100711.82
2018-01-11T22:25:47.211Z,100718.02
2018-01-11T22:28:49.434Z,100728.51
2018-01-11T22:31:50.778Z,100725.94
2018-01-11T22:34:52.100Z,100732.16
2018-01-11T22:37:53.425Z,100740.05
2018-01-11T22:40:55.507Z,100739.55
2018-01-11T22:43:57.587Z,100736.47
2018-01-11T22:46:58.924Z,100744.42
2018-01-11T22:50:00.309Z,100751.45
2018-01-11T22:53:02.634Z,100748.03
2018-01-11T22:56:04.810Z,100756.80
2018-01-11T22:59:07.001Z,100749.76
2018-01-11T23:02:08.406Z,100736.23
2018-01-11T23:05:09.780Z,100752.48
2018-01-11T23:08:11.895Z,100748.00
2018-01-11T23:11:19.462Z,100750.17
2018-01-11T23:14:20.823Z,100743.59
2018-01-11T23:17:22.260Z,100745.83
2018-01-11T23:20:23.638Z,100744.09
2018-01-11T23:23:25.030Z,100744.01
2018-01-11T23:26:26.416Z,100744.95
2018-01-11T23:29:27.757Z,100749.78
2018-01-11T23:32:29.133Z,100756.80
2018-01-11T23:35:31.173Z,100763.81
2018-01-11T23:38:32.559Z,100763.03
2018-01-11T23:41:33.910Z,100763.39
2018-01-11T23:44:35.239Z,100768.29
2018-01-11T23:47:36.625Z,100769.19
2018-01-11T23:50:38.006Z,100778.84
2018-01-11T23:53:39.375Z,100774.03
2018-01-11T23:56:41.507Z,100770.56
2018-01-11T23:59:43.615Z,100780.69
